sensor_id;sensor_type;location;lat;lon;timestamp;pressure;altitude;pressure_sealevel;temperature;humidity
30110;BME280;14965;50.660;13.226;2024-03-07T00:01:59;95499.75;;;1.18;100.00
30110;BME280;14965;50.660;13.226;2024-03-07T00:04:26;95491.16;;;1.16;100.00
30110;BME280;14965;50.660;13.226;2024-03-07T00:06:52;95483.38;;;1.15;100.00
30110;BME280;14965;50.660;13.226;2024-03-07T00:09:18;95478.72;;;1.15;100.00
30110;BME280;14965;50.660;13.226;2024-03-07T00:11:43;95489.53;;;1.12;100.00
30110;BME280;14965;50.660;13.226;2024-03-07T00:14:09;95484.44;;;1.10;100.00
30110;BME280;14965;50.660;13.226;2024-03-07T00:16:35;95477.06;;;1.11;100.00
30110;BME280;14965;50.660;13.226;2024-03-07T00:19:01;95471.63;;;1.11;100.00
30110;BME280;14965;50.660;13.226;2024-03-07T00:21:28;95482.94;;;1.13;100.00
30110;BME280;14965;50.660;13.226;2024-03-07T00:23:54;95483.75;;;1.13;100.00
30110;BME280;14965;50.660;13.226;2024-03-07T00:26:20;95486.88;;;1.15;100.00
30110;BME280;14965;50.660;13.226;2024-03-07T00:28:46;95479.88;;;1.14;100.00
30110;BME280;14965;50.660;13.226;2024-03-07T00:31:12;95482.53;;;1.11;100.00
30110;BME280;14965;50.660;13.226;2024-03-07T00:33:37;95477.72;;;1.04;100.00
30110;BME280;14965;50.660;13.226;2024-03-07T00:36:04;95477.31;;;1.02;100.00
30110;BME280;14965;50.660;13.226;2024-03-07T00:38:32;95478.94;;;1.07;100.00
30110;BME280;14965;50.660;13.226;2024-03-07T00:40:58;95481.75;;;1.10;100.00
30110;BME280;14965;50.660;13.226;2024-03-07T00:43:24;95482.53;;;1.11;100.00
30110;BME280;14965;50.660;13.226;2024-03-07T00:45:49;95475.06;;;1.08;100.00
30110;BME280;14965;50.660;13.226;2024-03-07T00:48:15;95472.28;;;1.04;100.00
30110;BME280;14965;50.660;13.226;2024-03-07T00:50:41;95468.38;;;1.02;100.00
30110;BME280;14965;50.660;13.226;2024-03-07T00:53:07;95472.19;;;0.97;100.00
30110;BME280;14965;50.660;13.226;2024-03-07T00:55:34;95472.91;;;0.94;100.00
30110;BME280;14965;50.660;13.226;2024-03-07T00:58:00;95464.75;;;0.94;100.00
30110;BME280;14965;50.660;13.226;2024-03-07T01:00:26;95459.31;;;0.94;100.00
30110;BME280;14965;50.660;13.226;2024-03-07T01:02:52;95464.69;;;0.90;100.00
30110;BME280;14965;50.660;13.226;2024-03-07T01:05:18;95453.78;;;0.90;100.00
30110;BME280;14965;50.660;13.226;2024-03-07T01:07:44;95463.97;;;0.93;100.00
30110;BME280;14965;50.660;13.226;2024-03-07T01:10:10;95455.81;;;0.93;100.00
30110;BME280;14965;50.660;13.226;2024-03-07T01:12:37;95457.81;;;0.96;100.00
30110;BME280;14965;50.660;13.226;2024-03-07T01:15:04;95453.56;;;0.99;100.00
30110;BME280;14965;50.660;13.226;2024-03-07T01:17:30;95454.34;;;0.99;100.00
30110;BME280;14965;50.660;13.226;2024-03-07T01:19:56;95449.34;;;1.02;100.00
30110;BME280;14965;50.660;13.226;2024-03-07T01:22:22;95449.81;;;1.07;100.00
30110;BME280;14965;50.660;13.226;2024-03-07T01:24:48;95456.41;;;1.06;100.00
30110;BME280;14965;50.660;13.226;2024-03-07T01:27:14;95452.47;;;1.04;100.00
30110;BME280;14965;50.660;13.226;2024-03-07T01:29:41;95459.06;;;1.03;100.00
30110;BME280;14965;50.660;13.226;2024-03-07T01:32:07;95448.56;;;1.01;100.00
30110;BME280;14965;50.660;13.226;2024-03-07T01:34:33;95453.22;;;1.01;100.00
30110;BME280;14965;50.660;13.226;2024-03-07T01:36:59;95453.63;;;1.03;100.00
30110;BME280;14965;50.660;13.226;2024-03-07T01:39:24;95455.97;;;1.04;100.00
30110;BME280;14965;50.660;13.226;2024-03-07T01:41:50;95453.50;;;0.95;100.00
30110;BME280;14965;50.660;13.226;2024-03-07T01:44:16;95449.84;;;0.88;100.00
30110;BME280;14965;50.660;13.226;2024-03-07T01:46:43;95459.16;;;0.87;100.00
30110;BME280;14965;50.660;13.226;2024-03-07T01:49:10;95455.25;;;0.84;100.00
30110;BME280;14965;50.660;13.226;2024-03-07T01:51:37;95454.03;;;0.82;100.00
30110;BME280;14965;50.660;13.226;2024-03-07T01:54:03;95451.75;;;0.84;100.00
30110;BME280;14965;50.660;13.226;2024-03-07T01:56:30;95449.44;;;0.86;100.00
30110;BME280;14965;50.660;13.226;2024-03-07T01:58:58;95453.31;;;0.85;100.00
30110;BME280;14965;50.660;13.226;2024-03-07T02:01:25;95451.00;;;0.87;100.00
30110;BME280;14965;50.660;13.226;2024-03-07T02:03:52;95451.06;;;0.90;100.00
30110;BME280;14965;50.660;13.226;2024-03-07T02:06:18;95442.63;;;0.95;100.00
30110;BME280;14965;50.660;13.226;2024-03-07T02:08:44;95444.25;;;1.00;100.00
30110;BME280;14965;50.660;13.226;2024-03-07T02:11:10;95443.97;;;1.05;100.00
30110;BME280;14965;50.660;13.226;2024-03-07T02:13:36;95441.34;;;1.12;100.00
30110;BME280;14965;50.660;13.226;2024-03-07T02:16:02;95440.69;;;1.19;100.00
30110;BME280;14965;50.660;13.226;2024-03-07T02:18:29;95432.66;;;1.26;100.00
30110;BME280;14965;50.660;13.226;2024-03-07T02:20:56;95429.59;;;1.31;100.00
30110;BME280;14965;50.660;13.226;2024-03-07T02:23:22;95429.97;;;1.30;100.00
30110;BME280;14965;50.660;13.226;2024-03-07T02:25:48;95428.72;;;1.23;100.00
30110;BME280;14965;50.660;13.226;2024-03-07T02:28:13;95429.38;;;1.17;100.00
30110;BME280;14965;50.660;13.226;2024-03-07T02:30:39;95429.75;;;1.15;100.00
30110;BME280;14965;50.660;13.226;2024-03-07T02:33:05;95428.31;;;1.21;100.00
30110;BME280;14965;50.660;13.226;2024-03-07T02:35:31;95429.44;;;1.20;100.00
30110;BME280;14965;50.660;13.226;2024-03-07T02:37:59;95430.53;;;1.16;100.00
30110;BME280;14965;50.660;13.226;2024-03-07T02:40:25;95425.81;;;1.13;100.00
30110;BME280;14965;50.660;13.226;2024-03-07T02:42:51;95423.41;;;1.08;100.00
30110;BME280;14965;50.660;13.226;2024-03-07T02:45:17;95425.00;;;1.09;100.00
30110;BME280;14965;50.660;13.226;2024-03-07T02:47:42;95421.50;;;1.12;100.00
30110;BME280;14965;50.660;13.226;2024-03-07T02:50:09;95416.50;;;1.14;100.00
30110;BME280;14965;50.660;13.226;2024-03-07T02:52:35;95410.63;;;1.12;100.00
30110;BME280;14965;50.660;13.226;2024-03-07T02:55:02;95413.34;;;1.12;100.00
30110;BME280;14965;50.660;13.226;2024-03-07T02:57:28;95409.13;;;1.14;100.00
30110;BME280;14965;50.660;13.226;2024-03-07T02:59:54;95404.84;;;1.13;100.00
30110;BME280;14965;50.660;13.226;2024-03-07T03:02:20;95405.94;;;1.09;100.00
30110;BME280;14965;50.660;13.226;2024-03-07T03:04:46;95407.06;;;1.08;100.00
30110;BME280;14965;50.660;13.226;2024-03-07T03:07:12;95405.50;;;1.07;100.00
30110;BME280;14965;50.660;13.226;2024-03-07T03:09:38;95397.34;;;1.07;100.00
30110;BME280;14965;50.660;13.226;2024-03-07T03:12:06;95402.84;;;1.10;100.00
30110;BME280;14965;50.660;13.226;2024-03-07T03:14:32;95395.09;;;1.12;100.00
30110;BME280;14965;50.660;13.226;2024-03-07T03:16:58;95399.81;;;1.15;100.00
30110;BME280;14965;50.660;13.226;2024-03-07T03:19:24;95397.88;;;1.16;100.00
30110;BME280;14965;50.660;13.226;2024-03-07T03:21:50;95398.66;;;1.16;100.00
30110;BME280;14965;50.660;13.226;2024-03-07T03:24:16;95393.97;;;1.13;100.00
30110;BME280;14965;50.660;13.226;2024-03-07T03:26:42;95395.09;;;1.12;100.00
30110;BME280;14965;50.660;13.226;2024-03-07T03:29:09;95405.97;;;1.12;100.00
30110;BME280;14965;50.660;13.226;2024-03-07T03:31:35;95406.41;;;1.14;100.00
30110;BME280;14965;50.660;13.226;2024-03-07T03:34:00;95402.22;;;1.20;100.00
30110;BME280;14965;50.660;13.226;2024-03-07T03:36:26;95406.53;;;1.21;100.00
30110;BME280;14965;50.660;13.226;2024-03-07T03:38:52;95398.78;;;1.23;100.00
30110;BME280;14965;50.660;13.226;2024-03-07T03:41:18;95398.06;;;1.27;100.00
30110;BME280;14965;50.660;13.226;2024-03-07T03:43:44;95405.50;;;1.30;100.00
30110;BME280;14965;50.660;13.226;2024-03-07T03:46:12;95404.69;;;1.29;100.00
30110;BME280;14965;50.660;13.226;2024-03-07T03:48:38;95409.72;;;1.27;100.00
30110;BME280;14965;50.660;13.226;2024-03-07T03:51:07;95403.84;;;1.25;100.00
30110;BME280;14965;50.660;13.226;2024-03-07T03:53:33;95405.72;;;1.21;100.00
30110;BME280;14965;50.660;13.226;2024-03-07T03:55:59;95404.16;;;1.20;100.00
30110;BME280;14965;50.660;13.226;2024-03-07T03:58:25;95392.50;;;1.19;100.00
30110;BME280;14965;50.660;13.226;2024-03-07T04:00:50;95398.38;;;1.21;100.00
30110;BME280;14965;50.660;13.226;2024-03-07T04:03:18;95396.06;;;1.23;100.00
30110;BME280;14965;50.660;13.226;2024-03-07T04:05:44;95394.13;;;1.24;100.00
30110;BME280;14965;50.660;13.226;2024-03-07T04:08:09;95395.69;;;1.25;100.00
30110;BME280;14965;50.660;13.226;2024-03-07T04:10:35;95387.13;;;1.23;100.00
30110;BME280;14965;50.660;13.226;2024-03-07T04:13:01;95399.88;;;1.19;100.00
30110;BME280;14965;50.660;13.226;2024-03-07T04:15:27;95396.78;;;1.20;100.00
30110;BME280;14965;50.660;13.226;2024-03-07T04:17:53;95397.94;;;1.19;100.00
30110;BME280;14965;50.660;13.226;2024-03-07T04:20:20;95393.53;;;1.11;100.00
30110;BME280;14965;50.660;13.226;2024-03-07T04:22:46;95394.25;;;1.08;100.00
30110;BME280;14965;50.660;13.226;2024-03-07T04:25:12;95387.25;;;1.07;100.00
30110;BME280;14965;50.660;13.226;2024-03-07T04:27:38;95386.91;;;1.09;100.00
30110;BME280;14965;50.660;13.226;2024-03-07T04:30:06;95387.31;;;1.11;100.00
30110;BME280;14965;50.660;13.226;2024-03-07T04:32:32;95381.88;;;1.11;100.00
30110;BME280;14965;50.660;13.226;2024-03-07T04:34:58;95387.78;;;1.16;100.00
30110;BME280;14965;50.660;13.226;2024-03-07T04:37:25;95385.13;;;1.20;100.00
30110;BME280;14965;50.660;13.226;2024-03-07T04:39:51;95383.88;;;1.14;100.00
30110;BME280;14965;50.660;13.226;2024-03-07T04:42:17;95383.88;;;1.14;100.00
30110;BME280;14965;50.660;13.226;2024-03-07T04:44:43;95392.03;;;1.14;100.00
30110;BME280;14965;50.660;13.226;2024-03-07T04:47:09;95387.38;;;1.14;100.00
30110;BME280;14965;50.660;13.226;2024-03-07T04:49:35;95384.72;;;1.18;100.00
30110;BME280;14965;50.660;13.226;2024-03-07T04:52:02;95386.34;;;1.22;100.00
30110;BME280;14965;50.660;13.226;2024-03-07T04:54:30;95390.63;;;1.23;100.00
30110;BME280;14965;50.660;13.226;2024-03-07T04:56:56;95383.66;;;1.26;100.00
30110;BME280;14965;50.660;13.226;2024-03-07T04:59:22;95387.53;;;1.25;100.00
30110;BME280;14965;50.660;13.226;2024-03-07T05:01:50;95388.75;;;1.28;100.00
30110;BME280;14965;50.660;13.226;2024-03-07T05:04:17;95389.78;;;1.19;100.00
30110;BME280;14965;50.660;13.226;2024-03-07T05:06:44;95386.66;;;1.17;100.00
30110;BME280;14965;50.660;13.226;2024-03-07T05:09:10;95383.94;;;1.17;100.00
30110;BME280;14965;50.660;13.226;2024-03-07T05:11:38;95396.44;;;1.22;100.00
30110;BME280;14965;50.660;13.226;2024-03-07T05:14:03;95388.63;;;1.20;100.00
30110;BME280;14965;50.660;13.226;2024-03-07T05:16:31;95388.22;;;1.18;100.00
30110;BME280;14965;50.660;13.226;2024-03-07T05:18:57;95385.13;;;1.20;100.00
30110;BME280;14965;50.660;13.226;2024-03-07T05:21:23;95383.66;;;1.26;100.00
30110;BME280;14965;50.660;13.226;2024-03-07T05:23:49;95388.75;;;1.28;100.00
30110;BME280;14965;50.660;13.226;2024-03-07T05:26:15;95389.56;;;1.32;100.00
30110;BME280;14965;50.660;13.226;2024-03-07T05:28:42;95389.16;;;1.30;100.00
30110;BME280;14965;50.660;13.226;2024-03-07T05:31:08;95388.06;;;1.34;100.00
30110;BME280;14965;50.660;13.226;2024-03-07T05:33:33;95388.91;;;1.38;100.00
30110;BME280;14965;50.660;13.226;2024-03-07T05:35:59;95383.88;;;1.40;100.00
30110;BME280;14965;50.660;13.226;2024-03-07T05:38:25;95391.38;;;1.47;100.00
30110;BME280;14965;50.660;13.226;2024-03-07T05:40:51;95390.47;;;1.39;100.00
30110;BME280;14965;50.660;13.226;2024-03-07T05:43:17;95392.03;;;1.40;100.00
30110;BME280;14965;50.660;13.226;2024-03-07T05:45:44;95388.91;;;1.38;100.00
30110;BME280;14965;50.660;13.226;2024-03-07T05:48:15;95393.53;;;1.38;100.00
30110;BME280;14965;50.660;13.226;2024-03-07T05:50:41;95395.78;;;1.32;100.00
30110;BME280;14965;50.660;13.226;2024-03-07T05:53:06;95397.38;;;1.33;100.00
30110;BME280;14965;50.660;13.226;2024-03-07T05:55:32;95392.28;;;1.32;100.00
30110;BME280;14965;50.660;13.226;2024-03-07T05:57:58;95392.63;;;1.27;100.00
30110;BME280;14965;50.660;13.226;2024-03-07T06:00:24;95394.13;;;1.24;100.00
30110;BME280;14965;50.660;13.226;2024-03-07T06:02:51;95394.75;;;1.14;100.00
30110;BME280;14965;50.660;13.226;2024-03-07T06:05:17;95392.81;;;1.14;100.00
30110;BME280;14965;50.660;13.226;2024-03-07T06:07:43;95392.88;;;1.18;100.00
30110;BME280;14965;50.660;13.226;2024-03-07T06:10:09;95399.88;;;1.19;100.00
30110;BME280;14965;50.660;13.226;2024-03-07T06:12:35;95392.56;;;1.23;100.00
30110;BME280;14965;50.660;13.226;2024-03-07T06:15:01;95397.28;;;1.26;100.00
30110;BME280;14965;50.660;13.226;2024-03-07T06:17:27;95394.13;;;1.24;100.00
30110;BME280;14965;50.660;13.226;2024-03-07T06:19:54;95399.88;;;1.19;100.00
30110;BME280;14965;50.660;13.226;2024-03-07T06:22:20;95397.88;;;1.16;100.00
30110;BME280;14965;50.660;13.226;2024-03-07T06:24:46;95404.09;;;1.16;100.00
30110;BME280;14965;50.660;13.226;2024-03-07T06:27:12;95408.69;;;1.12;100.00
30110;BME280;14965;50.660;13.226;2024-03-07T06:29:37;95410.88;;;1.03;100.00
30110;BME280;14965;50.660;13.226;2024-03-07T06:32:04;95407.31;;;0.99;100.00
30110;BME280;14965;50.660;13.226;2024-03-07T06:34:30;95419.16;;;0.87;100.00
30110;BME280;14965;50.660;13.226;2024-03-07T06:36:57;95426.44;;;0.80;100.00
30110;BME280;14965;50.660;13.226;2024-03-07T06:39:23;95424.00;;;0.74;100.00
30110;BME280;14965;50.660;13.226;2024-03-07T06:41:49;95418.44;;;0.67;100.00
30110;BME280;14965;50.660;13.226;2024-03-07T06:44:15;95420.31;;;0.63;100.00
30110;BME280;14965;50.660;13.226;2024-03-07T06:46:41;95418.69;;;0.59;100.00
30110;BME280;14965;50.660;13.226;2024-03-07T06:49:06;95414.81;;;0.60;100.00
30110;BME280;14965;50.660;13.226;2024-03-07T06:51:32;95420.59;;;0.58;100.00
30110;BME280;14965;50.660;13.226;2024-03-07T06:54:00;95409.38;;;0.60;100.00
30110;BME280;14965;50.660;13.226;2024-03-07T06:56:25;95416.81;;;0.63;100.00
30110;BME280;14965;50.660;13.226;2024-03-07T06:58:52;95416.13;;;0.69;100.00
30110;BME280;14965;50.660;13.226;2024-03-07T07:01:18;95412.00;;;0.76;100.00
30110;BME280;14965;50.660;13.226;2024-03-07T07:03:43;95415.13;;;0.78;100.00
30110;BME280;14965;50.660;13.226;2024-03-07T07:06:09;95425.94;;;0.74;100.00
30110;BME280;14965;50.660;13.226;2024-03-07T07:08:36;95422.88;;;0.76;100.00
30110;BME280;14965;50.660;13.226;2024-03-07T07:11:03;95423.03;;;0.86;100.00
30110;BME280;14965;50.660;13.226;2024-03-07T07:13:30;95418.50;;;0.94;100.00
30110;BME280;14965;50.660;13.226;2024-03-07T07:15:56;95417.47;;;1.02;100.00
30110;BME280;14965;50.660;13.226;2024-03-07T07:18:21;95429.09;;;1.22;100.00
30110;BME280;14965;50.660;13.226;2024-03-07T07:20:47;95426.94;;;1.35;100.00
30110;BME280;14965;50.660;13.226;2024-03-07T07:23:13;95419.69;;;1.42;100.00
30110;BME280;14965;50.660;13.226;2024-03-07T07:25:39;95420.75;;;1.38;100.00
30110;BME280;14965;50.660;13.226;2024-03-07T07:28:06;95424.28;;;1.38;100.00
30110;BME280;14965;50.660;13.226;2024-03-07T07:30:32;95426.78;;;1.24;98.11
30110;BME280;14965;50.660;13.226;2024-03-07T07:32:58;95430.78;;;1.07;97.96
30110;BME280;14965;50.660;13.226;2024-03-07T07:35:24;95419.66;;;0.93;98.38
30110;BME280;14965;50.660;13.226;2024-03-07T07:37:52;95428.47;;;0.86;98.72
30110;BME280;14965;50.660;13.226;2024-03-07T07:40:20;95429.25;;;0.87;99.30
30110;BME280;14965;50.660;13.226;2024-03-07T07:42:46;95423.88;;;0.90;99.78
30110;BME280;14965;50.660;13.226;2024-03-07T07:45:15;95431.56;;;0.85;97.67
30110;BME280;14965;50.660;13.226;2024-03-07T07:47:43;95422.06;;;0.98;98.62
30110;BME280;14965;50.660;13.226;2024-03-07T07:50:11;95423.00;;;1.06;98.43
30110;BME280;14965;50.660;13.226;2024-03-07T07:52:40;95427.28;;;1.07;96.57
30110;BME280;14965;50.660;13.226;2024-03-07T07:55:07;95427.06;;;0.96;94.23
30110;BME280;14965;50.660;13.226;2024-03-07T07:57:33;95429.31;;;0.90;94.37
30110;BME280;14965;50.660;13.226;2024-03-07T07:59:59;95426.13;;;0.85;95.12
30110;BME280;14965;50.660;13.226;2024-03-07T08:02:26;95414.47;;;0.84;95.65
30110;BME280;14965;50.660;13.226;2024-03-07T08:04:52;95421.34;;;0.78;95.40
30110;BME280;14965;50.660;13.226;2024-03-07T08:07:18;95421.16;;;0.67;96.00
30110;BME280;14965;50.660;13.226;2024-03-07T08:09:44;95416.22;;;0.73;96.32
30110;BME280;14965;50.660;13.226;2024-03-07T08:12:10;95419.34;;;0.75;95.52
30110;BME280;14965;50.660;13.226;2024-03-07T08:14:35;95425.88;;;0.70;92.73
30110;BME280;14965;50.660;13.226;2024-03-07T08:17:01;95425.38;;;0.65;91.86
30110;BME280;14965;50.660;13.226;2024-03-07T08:19:29;95428.81;;;0.62;88.92
30110;BME280;14965;50.660;13.226;2024-03-07T08:21:54;95429.59;;;0.62;89.64
30110;BME280;14965;50.660;13.226;2024-03-07T08:24:20;95429.31;;;0.67;91.00
30110;BME280;14965;50.660;13.226;2024-03-07T08:26:46;95433.16;;;0.66;88.69
30110;BME280;14965;50.660;13.226;2024-03-07T08:29:12;95427.72;;;0.66;88.32
30110;BME280;14965;50.660;13.226;2024-03-07T08:31:38;95432.16;;;0.74;87.51
30110;BME280;14965;50.660;13.226;2024-03-07T08:34:04;95425.59;;;0.76;87.96
30110;BME280;14965;50.660;13.226;2024-03-07T08:36:31;95424.50;;;0.80;87.88
30110;BME280;14965;50.660;13.226;2024-03-07T08:38:57;95427.63;;;0.82;88.28
30110;BME280;14965;50.660;13.226;2024-03-07T08:41:23;95424.06;;;0.78;88.63
30110;BME280;14965;50.660;13.226;2024-03-07T08:43:49;95419.06;;;0.80;88.76
30110;BME280;14965;50.660;13.226;2024-03-07T08:46:15;95423.22;;;0.74;89.55
30110;BME280;14965;50.660;13.226;2024-03-07T08:48:40;95425.16;;;0.73;90.13
30110;BME280;14965;50.660;13.226;2024-03-07T08:51:06;95423.50;;;0.69;89.70
30110;BME280;14965;50.660;13.226;2024-03-07T08:53:35;95423.44;;;0.65;90.00
30110;BME280;14965;50.660;13.226;2024-03-07T08:56:01;95423.88;;;0.67;90.65
30110;BME280;14965;50.660;13.226;2024-03-07T08:58:27;95421.66;;;0.73;89.74
30110;BME280;14965;50.660;13.226;2024-03-07T09:00:53;95422.38;;;0.70;87.38
30110;BME280;14965;50.660;13.226;2024-03-07T09:03:19;95434.75;;;0.67;85.98
30110;BME280;14965;50.660;13.226;2024-03-07T09:05:46;95423.75;;;0.60;83.22
30110;BME280;14965;50.660;13.226;2024-03-07T09:08:12;95421.81;;;0.61;83.24
30110;BME280;14965;50.660;13.226;2024-03-07T09:10:39;95430.53;;;0.70;82.19
30110;BME280;14965;50.660;13.226;2024-03-07T09:13:05;95429.81;;;0.73;80.58
30110;BME280;14965;50.660;13.226;2024-03-07T09:15:31;95418.56;;;0.74;79.20
30110;BME280;14965;50.660;13.226;2024-03-07T09:17:57;95420.25;;;0.83;78.50
30110;BME280;14965;50.660;13.226;2024-03-07T09:20:23;95437.66;;;0.78;77.76
30110;BME280;14965;50.660;13.226;2024-03-07T09:22:49;95417.84;;;0.78;78.44
30110;BME280;14965;50.660;13.226;2024-03-07T09:25:15;95424.56;;;0.84;77.62
30110;BME280;14965;50.660;13.226;2024-03-07T09:27:42;95421.00;;;0.80;75.54
30110;BME280;14965;50.660;13.226;2024-03-07T09:30:09;95420.25;;;0.83;77.46
30110;BME280;14965;50.660;13.226;2024-03-07T09:32:35;95415.78;;;0.94;78.07
30110;BME280;14965;50.660;13.226;2024-03-07T09:35:00;95422.44;;;0.96;77.09
30110;BME280;14965;50.660;13.226;2024-03-07T09:37:26;95418.91;;;0.96;77.18
30110;BME280;14965;50.660;13.226;2024-03-07T09:39:52;95425.81;;;0.90;77.46
30110;BME280;14965;50.660;13.226;2024-03-07T09:42:18;95420.38;;;0.90;78.94
30110;BME280;14965;50.660;13.226;2024-03-07T09:44:48;95423.56;;;0.95;78.16
30110;BME280;14965;50.660;13.226;2024-03-07T09:47:16;95417.72;;;0.93;78.08
30110;BME280;14965;50.660;13.226;2024-03-07T09:49:42;95430.31;;;1.02;78.37
30110;BME280;14965;50.660;13.226;2024-03-07T09:52:11;95431.63;;;1.11;78.93
30110;BME280;14965;50.660;13.226;2024-03-07T09:54:38;95425.16;;;1.19;79.05
30110;BME280;14965;50.660;13.226;2024-03-07T09:57:06;95423.56;;;1.18;77.29
30110;BME280;14965;50.660;13.226;2024-03-07T09:59:35;95429.94;;;1.03;77.70
30110;BME280;14965;50.660;13.226;2024-03-07T10:02:05;95427.22;;;1.03;78.90
30110;BME280;14965;50.660;13.226;2024-03-07T10:04:41;95424.69;;;1.14;78.87
30110;BME280;14965;50.660;13.226;2024-03-07T10:07:08;95415.94;;;1.28;78.44
30110;BME280;14965;50.660;13.226;2024-03-07T10:09:34;95419.31;;;1.44;77.02
30110;BME280;14965;50.660;13.226;2024-03-07T10:12:01;95421.31;;;1.47;76.56
30110;BME280;14965;50.660;13.226;2024-03-07T10:14:27;95419.03;;;1.53;75.35
30110;BME280;14965;50.660;13.226;2024-03-07T10:16:57;95420.03;;;1.67;74.25
30110;BME280;14965;50.660;13.226;2024-03-07T10:19:25;95412.00;;;1.78;74.39
30110;BME280;14965;50.660;13.226;2024-03-07T10:21:51;95418.66;;;1.81;73.01
30110;BME280;14965;50.660;13.226;2024-03-07T10:24:17;95420.72;;;1.61;72.73
30110;BME280;14965;50.660;13.226;2024-03-07T10:26:43;95412.28;;;1.69;73.01
30110;BME280;14965;50.660;13.226;2024-03-07T10:29:09;95410.94;;;1.86;72.29
30110;BME280;14965;50.660;13.226;2024-03-07T10:31:35;95413.16;;;2.07;71.72
30110;BME280;14965;50.660;13.226;2024-03-07T10:34:01;95424.50;;;2.09;71.12
30110;BME280;14965;50.660;13.226;2024-03-07T10:36:30;95410.88;;;2.09;71.38
30110;BME280;14965;50.660;13.226;2024-03-07T10:38:57;95416.28;;;2.06;72.53
30110;BME280;14965;50.660;13.226;2024-03-07T10:41:27;95417.00;;;2.03;72.59
30110;BME280;14965;50.660;13.226;2024-03-07T10:43:57;95416.00;;;1.84;71.06
30110;BME280;14965;50.660;13.226;2024-03-07T10:46:25;95405.44;;;1.83;72.06
30110;BME280;14965;50.660;13.226;2024-03-07T10:48:55;95406.56;;;1.78;72.41
30110;BME280;14965;50.660;13.226;2024-03-07T10:51:32;95411.13;;;1.70;72.12
30110;BME280;14965;50.660;13.226;2024-03-07T10:54:06;95394.16;;;1.81;71.98
30110;BME280;14965;50.660;13.226;2024-03-07T10:56:51;95391.72;;;2.02;72.46
30110;BME280;14965;50.660;13.226;2024-03-07T10:59:25;95388.59;;;2.37;71.86
30110;BME280;14965;50.660;13.226;2024-03-07T11:01:59;95379.75;;;2.88;71.51
30110;BME280;14965;50.660;13.226;2024-03-07T11:04:31;95380.59;;;3.44;70.98
30110;BME280;14965;50.660;13.226;2024-03-07T11:06:59;95388.91;;;3.65;66.80
30110;BME280;14965;50.660;13.226;2024-03-07T11:09:25;95379.63;;;3.18;65.20
30110;BME280;14965;50.660;13.226;2024-03-07T11:11:52;95386.63;;;3.16;65.96
30110;BME280;14965;50.660;13.226;2024-03-07T11:14:19;95380.97;;;3.39;65.51
30110;BME280;14965;50.660;13.226;2024-03-07T11:16:46;95377.16;;;3.58;65.61
30110;BME280;14965;50.660;13.226;2024-03-07T11:19:26;95377.56;;;3.63;63.74
30110;BME280;14965;50.660;13.226;2024-03-07T11:21:53;95374.47;;;3.61;65.65
30110;BME280;14965;50.660;13.226;2024-03-07T11:24:28;95369.97;;;3.94;67.12
30110;BME280;14965;50.660;13.226;2024-03-07T11:26:56;95375.19;;;4.38;64.31
30110;BME280;14965;50.660;13.226;2024-03-07T11:29:42;95376.41;;;4.48;63.44
30110;BME280;14965;50.660;13.226;2024-03-07T11:32:09;95380.50;;;3.99;64.14
30110;BME280;14965;50.660;13.226;2024-03-07T11:34:38;95372.13;;;3.63;66.22
30110;BME280;14965;50.660;13.226;2024-03-07T11:37:04;95368.44;;;3.38;66.89
30110;BME280;14965;50.660;13.226;2024-03-07T11:39:41;95374.28;;;3.33;66.80
30110;BME280;14965;50.660;13.226;2024-03-07T11:42:07;95368.44;;;3.38;68.22
30110;BME280;14965;50.660;13.226;2024-03-07T11:44:33;95366.53;;;3.42;67.60
30110;BME280;14965;50.660;13.226;2024-03-07T11:46:59;95367.97;;;3.25;68.23
30110;BME280;14965;50.660;13.226;2024-03-07T11:49:25;95364.06;;;3.22;68.52
30110;BME280;14965;50.660;13.226;2024-03-07T11:51:50;95359.72;;;3.14;67.81
30110;BME280;14965;50.660;13.226;2024-03-07T11:54:16;95353.91;;;3.19;69.51
30110;BME280;14965;50.660;13.226;2024-03-07T11:56:44;95353.66;;;3.39;69.65
30110;BME280;14965;50.660;13.226;2024-03-07T11:59:10;95343.22;;;3.59;69.83
30110;BME280;14965;50.660;13.226;2024-03-07T12:01:36;95352.63;;;3.65;69.61
30110;BME280;14965;50.660;13.226;2024-03-07T12:04:02;95344.00;;;3.56;69.79
30110;BME280;14965;50.660;13.226;2024-03-07T12:06:28;95341.22;;;3.48;70.06
30110;BME280;14965;50.660;13.226;2024-03-07T12:08:53;95347.50;;;3.53;69.76
30110;BME280;14965;50.660;13.226;2024-03-07T12:11:20;95343.19;;;3.48;68.92
30110;BME280;14965;50.660;13.226;2024-03-07T12:13:47;95345.13;;;3.51;70.27
30110;BME280;14965;50.660;13.226;2024-03-07T12:16:13;95342.84;;;3.60;69.92
30110;BME280;14965;50.660;13.226;2024-03-07T12:18:39;95334.69;;;3.64;69.17
30110;BME280;14965;50.660;13.226;2024-03-07T12:21:05;95331.88;;;3.53;68.27
30110;BME280;14965;50.660;13.226;2024-03-07T12:23:31;95332.50;;;3.29;68.99
30110;BME280;14965;50.660;13.226;2024-03-07T12:26:00;95331.22;;;3.12;69.23
30110;BME280;14965;50.660;13.226;2024-03-07T12:28:26;95330.06;;;3.13;70.64
30110;BME280;14965;50.660;13.226;2024-03-07T12:30:55;95330.16;;;3.23;69.76
30110;BME280;14965;50.660;13.226;2024-03-07T12:33:22;95330.31;;;3.48;70.41
30110;BME280;14965;50.660;13.226;2024-03-07T12:35:51;95317.06;;;3.54;69.61
30110;BME280;14965;50.660;13.226;2024-03-07T12:38:18;95323.75;;;3.67;70.06
30110;BME280;14965;50.660;13.226;2024-03-07T12:40:45;95327.28;;;3.64;70.38
30110;BME280;14965;50.660;13.226;2024-03-07T12:43:16;95326.78;;;3.48;69.62
30110;BME280;14965;50.660;13.226;2024-03-07T12:45:49;95326.28;;;3.28;70.46
30110;BME280;14965;50.660;13.226;2024-03-07T12:48:16;95329.78;;;3.29;71.01
30110;BME280;14965;50.660;13.226;2024-03-07T12:50:46;95312.69;;;3.39;71.30
30110;BME280;14965;50.660;13.226;2024-03-07T12:53:12;95329.16;;;3.53;70.44